Clorinda, Argentina
Current Conditions -  °F | °C
As of 12:00 AM on Sunday 23 Nov 2014 (Local Time) from SGAS Reporting Station
Clear Clear  
Wind Chill: 70°   Ceiling: Unl
Heat Index: 70°   Visibility: 6mi
Dew Point: 63°   Wind: 3mph
Humidity: 78%   Direction: NA
Pressure: 29.91"   Gusts: NA
Location:  25.29°S, 57.72°W
Report Text: SGAS 230300Z VRB03KT CAVOK 21/17 Q1013
Loading
Personal Weather Stations






























Interactive Weather Map New forecast layout! Learn more

10-Day Weather Forecast

Advertisements
Track Severe Weather on mobile